sensor_id;sensor_type;location;lat;lon;timestamp;temperature;humidity
25092;DHT22;13082;52.374;4.946;2023-04-24T00:00:57;12.00;99.90
25092;DHT22;13082;52.374;4.946;2023-04-24T00:03:24;12.00;99.90
25092;DHT22;13082;52.374;4.946;2023-04-24T00:05:50;12.00;99.90
25092;DHT22;13082;52.374;4.946;2023-04-24T00:08:16;12.00;99.90
25092;DHT22;13082;52.374;4.946;2023-04-24T00:10:42;12.00;99.90
25092;DHT22;13082;52.374;4.946;2023-04-24T00:13:08;11.90;99.90
25092;DHT22;13082;52.374;4.946;2023-04-24T00:15:33;11.80;99.90
25092;DHT22;13082;52.374;4.946;2023-04-24T00:17:59;11.80;99.90
25092;DHT22;13082;52.374;4.946;2023-04-24T00:20:27;11.80;99.90
25092;DHT22;13082;52.374;4.946;2023-04-24T00:22:55;11.70;99.90
25092;DHT22;13082;52.374;4.946;2023-04-24T00:25:20;11.60;99.90
25092;DHT22;13082;52.374;4.946;2023-04-24T00:27:46;11.50;99.90
25092;DHT22;13082;52.374;4.946;2023-04-24T00:30:12;11.50;99.90
25092;DHT22;13082;52.374;4.946;2023-04-24T00:32:37;11.50;99.90
25092;DHT22;13082;52.374;4.946;2023-04-24T00:35:03;11.40;99.90
25092;DHT22;13082;52.374;4.946;2023-04-24T00:37:29;11.30;99.90
25092;DHT22;13082;52.374;4.946;2023-04-24T00:39:55;11.20;99.90
25092;DHT22;13082;52.374;4.946;2023-04-24T00:42:20;11.20;99.90
25092;DHT22;13082;52.374;4.946;2023-04-24T00:44:46;11.20;99.90
25092;DHT22;13082;52.374;4.946;2023-04-24T00:47:12;11.20;99.90
25092;DHT22;13082;52.374;4.946;2023-04-24T00:49:38;11.20;99.90
25092;DHT22;13082;52.374;4.946;2023-04-24T00:52:04;11.20;99.90
25092;DHT22;13082;52.374;4.946;2023-04-24T00:54:33;11.20;99.90
25092;DHT22;13082;52.374;4.946;2023-04-24T00:56:58;11.20;99.90
25092;DHT22;13082;52.374;4.946;2023-04-24T00:59:24;11.10;99.90
25092;DHT22;13082;52.374;4.946;2023-04-24T01:01:50;11.20;99.90
25092;DHT22;13082;52.374;4.946;2023-04-24T01:04:17;11.20;99.90
25092;DHT22;13082;52.374;4.946;2023-04-24T01:06:44;11.30;99.90
25092;DHT22;13082;52.374;4.946;2023-04-24T01:09:11;11.20;99.90
25092;DHT22;13082;52.374;4.946;2023-04-24T01:11:37;11.20;99.90
25092;DHT22;13082;52.374;4.946;2023-04-24T01:14:03;11.20;99.90
25092;DHT22;13082;52.374;4.946;2023-04-24T01:16:29;11.20;99.90
25092;DHT22;13082;52.374;4.946;2023-04-24T01:18:55;11.10;99.90
25092;DHT22;13082;52.374;4.946;2023-04-24T01:21:21;11.10;99.90
25092;DHT22;13082;52.374;4.946;2023-04-24T01:23:47;11.10;99.90
25092;DHT22;13082;52.374;4.946;2023-04-24T01:26:16;11.10;99.90
25092;DHT22;13082;52.374;4.946;2023-04-24T01:28:42;11.10;99.90
25092;DHT22;13082;52.374;4.946;2023-04-24T01:31:08;11.10;99.90
25092;DHT22;13082;52.374;4.946;2023-04-24T01:33:34;11.00;99.90
25092;DHT22;13082;52.374;4.946;2023-04-24T01:36:00;11.00;99.90
25092;DHT22;13082;52.374;4.946;2023-04-24T01:38:26;11.00;99.90
25092;DHT22;13082;52.374;4.946;2023-04-24T01:40:52;10.90;99.90
25092;DHT22;13082;52.374;4.946;2023-04-24T01:43:18;10.90;99.90
25092;DHT22;13082;52.374;4.946;2023-04-24T01:45:44;10.90;99.90
25092;DHT22;13082;52.374;4.946;2023-04-24T01:48:11;10.90;99.90
25092;DHT22;13082;52.374;4.946;2023-04-24T01:50:37;10.80;99.90
25092;DHT22;13082;52.374;4.946;2023-04-24T01:53:03;10.80;99.90
25092;DHT22;13082;52.374;4.946;2023-04-24T01:55:29;10.70;99.90
25092;DHT22;13082;52.374;4.946;2023-04-24T01:57:55;10.70;99.90
25092;DHT22;13082;52.374;4.946;2023-04-24T02:00:22;10.70;99.90
25092;DHT22;13082;52.374;4.946;2023-04-24T02:02:47;10.70;99.90
25092;DHT22;13082;52.374;4.946;2023-04-24T02:05:13;10.70;99.90
25092;DHT22;13082;52.374;4.946;2023-04-24T02:07:38;10.60;99.90
25092;DHT22;13082;52.374;4.946;2023-04-24T02:10:05;10.60;99.90
25092;DHT22;13082;52.374;4.946;2023-04-24T02:12:31;10.60;99.90
25092;DHT22;13082;52.374;4.946;2023-04-24T02:14:57;10.60;99.90
25092;DHT22;13082;52.374;4.946;2023-04-24T02:17:22;10.60;99.90
25092;DHT22;13082;52.374;4.946;2023-04-24T02:19:48;10.60;99.90
25092;DHT22;13082;52.374;4.946;2023-04-24T02:22:14;10.70;99.90
25092;DHT22;13082;52.374;4.946;2023-04-24T02:24:39;10.70;99.90
25092;DHT22;13082;52.374;4.946;2023-04-24T02:27:05;10.70;99.90
25092;DHT22;13082;52.374;4.946;2023-04-24T02:29:31;10.60;99.90
25092;DHT22;13082;52.374;4.946;2023-04-24T02:31:57;10.60;99.90
25092;DHT22;13082;52.374;4.946;2023-04-24T02:34:22;10.60;99.90
25092;DHT22;13082;52.374;4.946;2023-04-24T02:36:48;10.70;99.90
25092;DHT22;13082;52.374;4.946;2023-04-24T02:39:14;10.70;99.90
25092;DHT22;13082;52.374;4.946;2023-04-24T02:41:42;10.60;99.90
25092;DHT22;13082;52.374;4.946;2023-04-24T02:44:08;10.60;99.90
25092;DHT22;13082;52.374;4.946;2023-04-24T02:46:34;10.60;99.90
25092;DHT22;13082;52.374;4.946;2023-04-24T02:48:59;10.50;99.90
25092;DHT22;13082;52.374;4.946;2023-04-24T02:51:25;10.50;99.90
25092;DHT22;13082;52.374;4.946;2023-04-24T02:53:50;10.60;99.90
25092;DHT22;13082;52.374;4.946;2023-04-24T02:56:16;10.50;99.90
25092;DHT22;13082;52.374;4.946;2023-04-24T02:58:42;10.60;99.90
25092;DHT22;13082;52.374;4.946;2023-04-24T03:01:08;10.60;99.90
25092;DHT22;13082;52.374;4.946;2023-04-24T03:03:35;10.60;99.90
25092;DHT22;13082;52.374;4.946;2023-04-24T03:06:01;10.50;99.90
25092;DHT22;13082;52.374;4.946;2023-04-24T03:08:27;10.50;99.90
25092;DHT22;13082;52.374;4.946;2023-04-24T03:10:52;10.40;99.90
25092;DHT22;13082;52.374;4.946;2023-04-24T03:13:18;10.40;99.90
25092;DHT22;13082;52.374;4.946;2023-04-24T03:15:44;10.30;99.90
25092;DHT22;13082;52.374;4.946;2023-04-24T03:18:10;10.30;99.90
25092;DHT22;13082;52.374;4.946;2023-04-24T03:20:36;10.30;99.90
25092;DHT22;13082;52.374;4.946;2023-04-24T03:23:03;10.30;99.90
25092;DHT22;13082;52.374;4.946;2023-04-24T03:25:28;10.30;99.90
25092;DHT22;13082;52.374;4.946;2023-04-24T03:27:54;10.40;99.90
25092;DHT22;13082;52.374;4.946;2023-04-24T03:30:20;10.40;99.90
25092;DHT22;13082;52.374;4.946;2023-04-24T03:32:45;10.40;99.90
25092;DHT22;13082;52.374;4.946;2023-04-24T03:35:11;10.40;99.90
25092;DHT22;13082;52.374;4.946;2023-04-24T03:37:37;10.40;99.90
25092;DHT22;13082;52.374;4.946;2023-04-24T03:40:02;10.40;99.90
25092;DHT22;13082;52.374;4.946;2023-04-24T03:42:28;10.40;99.90
25092;DHT22;13082;52.374;4.946;2023-04-24T03:44:54;10.40;99.90
25092;DHT22;13082;52.374;4.946;2023-04-24T03:47:19;10.40;99.90
25092;DHT22;13082;52.374;4.946;2023-04-24T03:49:45;10.50;99.90
25092;DHT22;13082;52.374;4.946;2023-04-24T03:52:10;10.50;99.90
25092;DHT22;13082;52.374;4.946;2023-04-24T03:54:36;10.50;99.90
25092;DHT22;13082;52.374;4.946;2023-04-24T03:57:02;10.50;99.90
25092;DHT22;13082;52.374;4.946;2023-04-24T03:59:28;10.40;99.90
25092;DHT22;13082;52.374;4.946;2023-04-24T04:01:54;10.50;99.90
25092;DHT22;13082;52.374;4.946;2023-04-24T04:04:20;10.50;99.90
25092;DHT22;13082;52.374;4.946;2023-04-24T04:06:45;10.50;99.90
25092;DHT22;13082;52.374;4.946;2023-04-24T04:09:12;10.40;99.90
25092;DHT22;13082;52.374;4.946;2023-04-24T04:11:37;10.50;99.90
25092;DHT22;13082;52.374;4.946;2023-04-24T04:14:03;10.40;99.90
25092;DHT22;13082;52.374;4.946;2023-04-24T04:16:29;10.50;99.90
25092;DHT22;13082;52.374;4.946;2023-04-24T04:18:54;10.50;99.90
25092;DHT22;13082;52.374;4.946;2023-04-24T04:21:20;10.50;99.90
25092;DHT22;13082;52.374;4.946;2023-04-24T04:23:46;10.50;99.90
25092;DHT22;13082;52.374;4.946;2023-04-24T04:26:12;10.50;99.90
25092;DHT22;13082;52.374;4.946;2023-04-24T04:28:40;10.50;99.90
25092;DHT22;13082;52.374;4.946;2023-04-24T04:31:07;10.50;99.90
25092;DHT22;13082;52.374;4.946;2023-04-24T04:33:33;10.50;99.90
25092;DHT22;13082;52.374;4.946;2023-04-24T04:35:59;10.50;99.90
25092;DHT22;13082;52.374;4.946;2023-04-24T04:38:25;10.40;99.90
25092;DHT22;13082;52.374;4.946;2023-04-24T04:40:55;10.40;99.90
25092;DHT22;13082;52.374;4.946;2023-04-24T04:43:23;10.40;99.90
25092;DHT22;13082;52.374;4.946;2023-04-24T04:45:49;10.40;99.90
25092;DHT22;13082;52.374;4.946;2023-04-24T04:48:17;10.30;99.90
25092;DHT22;13082;52.374;4.946;2023-04-24T04:50:43;10.30;99.90
25092;DHT22;13082;52.374;4.946;2023-04-24T04:53:08;10.30;99.90
25092;DHT22;13082;52.374;4.946;2023-04-24T04:55:34;10.30;99.90
25092;DHT22;13082;52.374;4.946;2023-04-24T04:58:00;10.30;99.90
25092;DHT22;13082;52.374;4.946;2023-04-24T05:00:26;10.30;99.90
25092;DHT22;13082;52.374;4.946;2023-04-24T05:02:52;10.20;99.90
25092;DHT22;13082;52.374;4.946;2023-04-24T05:05:18;10.30;99.90
25092;DHT22;13082;52.374;4.946;2023-04-24T05:07:44;10.30;99.90
25092;DHT22;13082;52.374;4.946;2023-04-24T05:10:10;10.30;99.90
25092;DHT22;13082;52.374;4.946;2023-04-24T05:12:36;10.30;99.90
25092;DHT22;13082;52.374;4.946;2023-04-24T05:15:01;10.40;99.90
25092;DHT22;13082;52.374;4.946;2023-04-24T05:17:28;10.30;99.90
25092;DHT22;13082;52.374;4.946;2023-04-24T05:19:53;10.30;99.90
25092;DHT22;13082;52.374;4.946;2023-04-24T05:22:19;10.30;99.90
25092;DHT22;13082;52.374;4.946;2023-04-24T05:24:46;10.30;99.90
25092;DHT22;13082;52.374;4.946;2023-04-24T05:27:12;10.20;99.90
25092;DHT22;13082;52.374;4.946;2023-04-24T05:29:38;10.30;99.90
25092;DHT22;13082;52.374;4.946;2023-04-24T05:32:03;10.30;99.90
25092;DHT22;13082;52.374;4.946;2023-04-24T05:34:29;10.30;99.90
25092;DHT22;13082;52.374;4.946;2023-04-24T05:36:55;10.30;99.90
25092;DHT22;13082;52.374;4.946;2023-04-24T05:39:21;10.20;99.90
25092;DHT22;13082;52.374;4.946;2023-04-24T05:41:46;10.20;99.90
25092;DHT22;13082;52.374;4.946;2023-04-24T05:44:12;10.10;99.90
25092;DHT22;13082;52.374;4.946;2023-04-24T05:46:37;10.10;99.90
25092;DHT22;13082;52.374;4.946;2023-04-24T05:49:03;10.00;99.90
25092;DHT22;13082;52.374;4.946;2023-04-24T05:51:29;9.90;99.90
25092;DHT22;13082;52.374;4.946;2023-04-24T05:53:54;9.90;99.90
25092;DHT22;13082;52.374;4.946;2023-04-24T05:56:20;9.90;99.90
25092;DHT22;13082;52.374;4.946;2023-04-24T05:58:46;9.80;99.90
25092;DHT22;13082;52.374;4.946;2023-04-24T06:01:12;9.80;99.90
25092;DHT22;13082;52.374;4.946;2023-04-24T06:03:40;9.90;99.90
25092;DHT22;13082;52.374;4.946;2023-04-24T06:06:06;9.80;99.90
25092;DHT22;13082;52.374;4.946;2023-04-24T06:08:32;9.80;99.90
25092;DHT22;13082;52.374;4.946;2023-04-24T06:10:58;9.90;99.90
25092;DHT22;13082;52.374;4.946;2023-04-24T06:13:24;10.00;99.90
25092;DHT22;13082;52.374;4.946;2023-04-24T06:15:50;10.00;99.90
25092;DHT22;13082;52.374;4.946;2023-04-24T06:18:15;9.90;99.90
25092;DHT22;13082;52.374;4.946;2023-04-24T06:20:41;9.90;99.90
25092;DHT22;13082;52.374;4.946;2023-04-24T06:23:07;9.90;99.90
25092;DHT22;13082;52.374;4.946;2023-04-24T06:25:33;9.90;99.90
25092;DHT22;13082;52.374;4.946;2023-04-24T06:27:58;9.90;99.90
25092;DHT22;13082;52.374;4.946;2023-04-24T06:30:24;9.70;99.90
25092;DHT22;13082;52.374;4.946;2023-04-24T06:32:50;9.70;99.90
25092;DHT22;13082;52.374;4.946;2023-04-24T06:35:16;9.70;99.90
25092;DHT22;13082;52.374;4.946;2023-04-24T06:37:42;9.80;99.90
25092;DHT22;13082;52.374;4.946;2023-04-24T06:40:08;9.80;99.90
25092;DHT22;13082;52.374;4.946;2023-04-24T06:42:35;9.90;99.90
25092;DHT22;13082;52.374;4.946;2023-04-24T06:45:02;9.90;99.90
25092;DHT22;13082;52.374;4.946;2023-04-24T06:47:29;9.90;99.90
25092;DHT22;13082;52.374;4.946;2023-04-24T06:49:54;9.90;99.90
25092;DHT22;13082;52.374;4.946;2023-04-24T06:52:20;9.90;99.90
25092;DHT22;13082;52.374;4.946;2023-04-24T06:54:46;9.90;99.90
25092;DHT22;13082;52.374;4.946;2023-04-24T06:57:11;9.90;99.90
25092;DHT22;13082;52.374;4.946;2023-04-24T06:59:37;10.00;99.90
25092;DHT22;13082;52.374;4.946;2023-04-24T07:02:03;10.00;99.90
25092;DHT22;13082;52.374;4.946;2023-04-24T07:04:29;10.00;99.90
25092;DHT22;13082;52.374;4.946;2023-04-24T07:06:55;10.00;99.90
25092;DHT22;13082;52.374;4.946;2023-04-24T07:09:22;10.00;99.90
25092;DHT22;13082;52.374;4.946;2023-04-24T07:11:49;9.90;99.90
25092;DHT22;13082;52.374;4.946;2023-04-24T07:14:15;9.90;99.90
25092;DHT22;13082;52.374;4.946;2023-04-24T07:16:41;9.90;99.90
25092;DHT22;13082;52.374;4.946;2023-04-24T07:19:07;9.90;99.90
25092;DHT22;13082;52.374;4.946;2023-04-24T07:21:32;9.90;99.90
25092;DHT22;13082;52.374;4.946;2023-04-24T07:23:58;9.80;99.90
25092;DHT22;13082;52.374;4.946;2023-04-24T07:26:25;9.80;99.90
25092;DHT22;13082;52.374;4.946;2023-04-24T07:28:51;9.70;99.90
25092;DHT22;13082;52.374;4.946;2023-04-24T07:31:16;9.60;99.90
25092;DHT22;13082;52.374;4.946;2023-04-24T07:33:42;9.50;99.90
25092;DHT22;13082;52.374;4.946;2023-04-24T07:36:07;9.50;99.90
25092;DHT22;13082;52.374;4.946;2023-04-24T07:38:33;9.50;99.90
25092;DHT22;13082;52.374;4.946;2023-04-24T07:40:59;9.40;99.90
25092;DHT22;13082;52.374;4.946;2023-04-24T07:43:24;9.40;99.90
25092;DHT22;13082;52.374;4.946;2023-04-24T07:45:51;9.40;99.90
25092;DHT22;13082;52.374;4.946;2023-04-24T07:48:16;9.40;99.90
25092;DHT22;13082;52.374;4.946;2023-04-24T07:50:43;9.40;99.90
25092;DHT22;13082;52.374;4.946;2023-04-24T07:53:09;9.40;99.90
25092;DHT22;13082;52.374;4.946;2023-04-24T07:55:35;9.30;99.90
25092;DHT22;13082;52.374;4.946;2023-04-24T07:58:01;9.40;99.90
25092;DHT22;13082;52.374;4.946;2023-04-24T08:00:26;9.40;99.90
25092;DHT22;13082;52.374;4.946;2023-04-24T08:02:52;9.40;99.90
25092;DHT22;13082;52.374;4.946;2023-04-24T08:05:18;9.20;99.90
25092;DHT22;13082;52.374;4.946;2023-04-24T08:07:44;9.20;99.90
25092;DHT22;13082;52.374;4.946;2023-04-24T08:10:11;9.20;99.90
25092;DHT22;13082;52.374;4.946;2023-04-24T08:12:37;9.20;99.90
25092;DHT22;13082;52.374;4.946;2023-04-24T08:15:04;9.20;99.90
25092;DHT22;13082;52.374;4.946;2023-04-24T08:17:30;9.20;99.90
25092;DHT22;13082;52.374;4.946;2023-04-24T08:19:56;9.20;99.90
25092;DHT22;13082;52.374;4.946;2023-04-24T08:22:29;9.30;99.90
25092;DHT22;13082;52.374;4.946;2023-04-24T08:24:55;9.30;99.90
25092;DHT22;13082;52.374;4.946;2023-04-24T08:27:22;9.30;99.90
25092;DHT22;13082;52.374;4.946;2023-04-24T08:29:50;9.20;99.90
25092;DHT22;13082;52.374;4.946;2023-04-24T08:32:16;9.40;99.90
25092;DHT22;13082;52.374;4.946;2023-04-24T08:34:42;9.40;99.90
25092;DHT22;13082;52.374;4.946;2023-04-24T08:37:08;9.40;99.90
25092;DHT22;13082;52.374;4.946;2023-04-24T08:39:33;9.40;99.90
25092;DHT22;13082;52.374;4.946;2023-04-24T08:42:00;9.50;99.90
25092;DHT22;13082;52.374;4.946;2023-04-24T08:44:32;9.50;99.90
25092;DHT22;13082;52.374;4.946;2023-04-24T08:46:58;9.60;99.90
25092;DHT22;13082;52.374;4.946;2023-04-24T08:49:24;9.60;99.90
25092;DHT22;13082;52.374;4.946;2023-04-24T08:51:52;9.60;99.90
25092;DHT22;13082;52.374;4.946;2023-04-24T08:54:18;9.60;99.90
25092;DHT22;13082;52.374;4.946;2023-04-24T08:56:44;9.60;99.90
25092;DHT22;13082;52.374;4.946;2023-04-24T08:59:10;9.50;99.90
25092;DHT22;13082;52.374;4.946;2023-04-24T09:01:38;9.40;99.90
25092;DHT22;13082;52.374;4.946;2023-04-24T09:04:07;9.30;99.90
25092;DHT22;13082;52.374;4.946;2023-04-24T09:06:34;9.30;99.90
25092;DHT22;13082;52.374;4.946;2023-04-24T09:09:01;9.30;99.90
25092;DHT22;13082;52.374;4.946;2023-04-24T09:11:27;9.30;99.90
25092;DHT22;13082;52.374;4.946;2023-04-24T09:13:56;9.30;99.90
25092;DHT22;13082;52.374;4.946;2023-04-24T09:16:22;9.30;99.90
25092;DHT22;13082;52.374;4.946;2023-04-24T09:18:50;9.30;99.90
25092;DHT22;13082;52.374;4.946;2023-04-24T09:21:15;9.30;99.90
25092;DHT22;13082;52.374;4.946;2023-04-24T09:23:41;9.40;99.90
25092;DHT22;13082;52.374;4.946;2023-04-24T09:26:09;9.40;99.90
25092;DHT22;13082;52.374;4.946;2023-04-24T09:28:37;9.50;99.90
25092;DHT22;13082;52.374;4.946;2023-04-24T09:31:18;9.60;99.90
25092;DHT22;13082;52.374;4.946;2023-04-24T09:34:04;9.60;99.90
25092;DHT22;13082;52.374;4.946;2023-04-24T09:36:38;9.60;99.90
25092;DHT22;13082;52.374;4.946;2023-04-24T09:39:05;9.70;99.90
25092;DHT22;13082;52.374;4.946;2023-04-24T09:41:33;9.80;99.90
25092;DHT22;13082;52.374;4.946;2023-04-24T09:44:21;9.80;99.90
25092;DHT22;13082;52.374;4.946;2023-04-24T09:46:51;9.90;99.90
25092;DHT22;13082;52.374;4.946;2023-04-24T09:49:24;9.80;99.90
25092;DHT22;13082;52.374;4.946;2023-04-24T09:51:50;9.90;99.90
25092;DHT22;13082;52.374;4.946;2023-04-24T09:54:18;9.90;99.90
25092;DHT22;13082;52.374;4.946;2023-04-24T09:56:51;10.00;99.90
25092;DHT22;13082;52.374;4.946;2023-04-24T09:59:18;9.90;99.90
25092;DHT22;13082;52.374;4.946;2023-04-24T10:01:44;10.00;99.90
25092;DHT22;13082;52.374;4.946;2023-04-24T10:04:20;9.90;99.90
25092;DHT22;13082;52.374;4.946;2023-04-24T10:06:47;9.90;99.90
25092;DHT22;13082;52.374;4.946;2023-04-24T10:09:17;9.90;99.90
25092;DHT22;13082;52.374;4.946;2023-04-24T10:11:45;9.90;99.90
25092;DHT22;13082;52.374;4.946;2023-04-24T10:14:20;9.80;99.90
25092;DHT22;13082;52.374;4.946;2023-04-24T10:16:46;9.80;99.90
25092;DHT22;13082;52.374;4.946;2023-04-24T10:19:14;9.80;99.90
25092;DHT22;13082;52.374;4.946;2023-04-24T10:21:41;9.80;99.90
25092;DHT22;13082;52.374;4.946;2023-04-24T10:24:12;9.80;99.90
25092;DHT22;13082;52.374;4.946;2023-04-24T10:26:38;9.80;99.90
25092;DHT22;13082;52.374;4.946;2023-04-24T10:29:05;9.90;99.90
25092;DHT22;13082;52.374;4.946;2023-04-24T10:31:38;10.00;99.90
25092;DHT22;13082;52.374;4.946;2023-04-24T10:34:08;10.10;99.90
25092;DHT22;13082;52.374;4.946;2023-04-24T10:36:35;10.10;99.90
25092;DHT22;13082;52.374;4.946;2023-04-24T10:39:03;10.10;99.90
25092;DHT22;13082;52.374;4.946;2023-04-24T10:41:31;10.00;99.90
25092;DHT22;13082;52.374;4.946;2023-04-24T10:44:13;10.00;99.90
25092;DHT22;13082;52.374;4.946;2023-04-24T10:46:43;10.00;99.90
25092;DHT22;13082;52.374;4.946;2023-04-24T10:49:09;10.10;99.90
25092;DHT22;13082;52.374;4.946;2023-04-24T10:51:49;10.30;99.90
25092;DHT22;13082;52.374;4.946;2023-04-24T10:54:35;10.50;99.90
25092;DHT22;13082;52.374;4.946;2023-04-24T10:59:49;10.60;99.90
25092;DHT22;13082;52.374;4.946;2023-04-24T11:02:16;10.60;99.90
25092;DHT22;13082;52.374;4.946;2023-04-24T11:04:43;10.70;99.90
25092;DHT22;13082;52.374;4.946;2023-04-24T11:07:09;10.80;99.90
25092;DHT22;13082;52.374;4.946;2023-04-24T11:09:36;10.80;99.90
25092;DHT22;13082;52.374;4.946;2023-04-24T11:12:09;10.80;99.90
25092;DHT22;13082;52.374;4.946;2023-04-24T11:14:59;10.80;99.90
25092;DHT22;13082;52.374;4.946;2023-04-24T11:17:36;10.80;99.90
25092;DHT22;13082;52.374;4.946;2023-04-24T11:20:08;10.70;99.90
25092;DHT22;13082;52.374;4.946;2023-04-24T11:22:36;10.70;99.90
25092;DHT22;13082;52.374;4.946;2023-04-24T11:25:03;10.70;99.90
25092;DHT22;13082;52.374;4.946;2023-04-24T11:27:39;10.70;99.90
25092;DHT22;13082;52.374;4.946;2023-04-24T11:30:05;10.70;99.90
25092;DHT22;13082;52.374;4.946;2023-04-24T11:32:41;10.80;99.90
25092;DHT22;13082;52.374;4.946;2023-04-24T11:37:47;11.10;99.90
25092;DHT22;13082;52.374;4.946;2023-04-24T11:40:15;11.20;99.90
25092;DHT22;13082;52.374;4.946;2023-04-24T11:42:43;11.10;99.90
25092;DHT22;13082;52.374;4.946;2023-04-24T11:45:17;11.00;99.90
25092;DHT22;13082;52.374;4.946;2023-04-24T11:47:44;11.00;99.90
25092;DHT22;13082;52.374;4.946;2023-04-24T11:50:16;11.10;99.90
25092;DHT22;13082;52.374;4.946;2023-04-24T11:52:43;11.20;99.90
25092;DHT22;13082;52.374;4.946;2023-04-24T11:57:46;11.00;99.90
25092;DHT22;13082;52.374;4.946;2023-04-24T12:00:16;11.00;99.90
25092;DHT22;13082;52.374;4.946;2023-04-24T12:02:44;10.90;99.90
25092;DHT22;13082;52.374;4.946;2023-04-24T12:05:18;10.70;99.90
25092;DHT22;13082;52.374;4.946;2023-04-24T12:07:44;10.70;99.90
25092;DHT22;13082;52.374;4.946;2023-04-24T12:10:10;10.50;99.90
25092;DHT22;13082;52.374;4.946;2023-04-24T12:12:36;10.40;99.90
25092;DHT22;13082;52.374;4.946;2023-04-24T12:15:07;10.20;99.90
25092;DHT22;13082;52.374;4.946;2023-04-24T12:17:34;10.10;99.90
25092;DHT22;13082;52.374;4.946;2023-04-24T12:20:02;10.00;99.90
25092;DHT22;13082;52.374;4.946;2023-04-24T12:25:14;10.00;99.90
25092;DHT22;13082;52.374;4.946;2023-04-24T12:27:40;9.90;99.90
25092;DHT22;13082;52.374;4.946;2023-04-24T12:30:10;9.90;99.90
25092;DHT22;13082;52.374;4.946;2023-04-24T12:32:42;10.00;99.90
25092;DHT22;13082;52.374;4.946;2023-04-24T12:35:08;10.10;99.90
25092;DHT22;13082;52.374;4.946;2023-04-24T12:37:34;10.10;99.90
25092;DHT22;13082;52.374;4.946;2023-04-24T12:40:06;10.10;99.90
25092;DHT22;13082;52.374;4.946;2023-04-24T12:42:33;10.10;99.90
25092;DHT22;13082;52.374;4.946;2023-04-24T12:45:01;10.20;99.90
25092;DHT22;13082;52.374;4.946;2023-04-24T12:47:28;10.20;99.90
25092;DHT22;13082;52.374;4.946;2023-04-24T12:49:53;10.30;99.90
25092;DHT22;13082;52.374;4.946;2023-04-24T12:52:24;10.40;99.90
25092;DHT22;13082;52.374;4.946;2023-04-24T12:54:54;10.40;99.90
25092;DHT22;13082;52.374;4.946;2023-04-24T12:57:21;10.40;99.90
25092;DHT22;13082;52.374;4.946;2023-04-24T12:59:47;10.30;99.90
25092;DHT22;13082;52.374;4.946;2023-04-24T13:02:12;10.40;99.90
25092;DHT22;13082;52.374;4.946;2023-04-24T13:04:38;10.40;99.90
25092;DHT22;13082;52.374;4.946;2023-04-24T13:07:05;10.40;99.90
25092;DHT22;13082;52.374;4.946;2023-04-24T13:09:30;10.40;99.90
25092;DHT22;13082;52.374;4.946;2023-04-24T13:11:56;10.30;99.90
25092;DHT22;13082;52.374;4.946;2023-04-24T13:14:22;10.30;99.90
25092;DHT22;13082;52.374;4.946;2023-04-24T13:16:49;10.30;99.90
25092;DHT22;13082;52.374;4.946;2023-04-24T13:19:14;10.30;99.90
25092;DHT22;13082;52.374;4.946;2023-04-24T13:21:40;10.30;99.90
25092;DHT22;13082;52.374;4.946;2023-04-24T13:24:06;10.40;99.90
25092;DHT22;13082;52.374;4.946;2023-04-24T13:26:33;10.50;99.90
25092;DHT22;13082;52.374;4.946;2023-04-24T13:28:59;10.50;99.90
25092;DHT22;13082;52.374;4.946;2023-04-24T13:31:24;10.30;99.90
25092;DHT22;13082;52.374;4.946;2023-04-24T13:33:50;10.20;99.90
25092;DHT22;13082;52.374;4.946;2023-04-24T13:36:16;10.10;99.90
25092;DHT22;13082;52.374;4.946;2023-04-24T13:38:43;10.20;99.90
25092;DHT22;13082;52.374;4.946;2023-04-24T13:41:10;10.10;99.90
25092;DHT22;13082;52.374;4.946;2023-04-24T13:43:35;10.20;99.90
25092;DHT22;13082;52.374;4.946;2023-04-24T13:46:01;10.10;99.90
25092;DHT22;13082;52.374;4.946;2023-04-24T13:48:29;10.10;99.90
25092;DHT22;13082;52.374;4.946;2023-04-24T13:50:54;10.10;99.90
25092;DHT22;13082;52.374;4.946;2023-04-24T13:53:20;10.00;99.90
25092;DHT22;13082;52.374;4.946;2023-04-24T13:55:46;10.10;99.90
25092;DHT22;13082;52.374;4.946;2023-04-24T13:58:11;10.30;99.90
25092;DHT22;13082;52.374;4.946;2023-04-24T14:00:37;10.30;99.90
25092;DHT22;13082;52.374;4.946;2023-04-24T14:03:03;10.40;99.90
25092;DHT22;13082;52.374;4.946;2023-04-24T14:05:29;10.60;99.90
25092;DHT22;13082;52.374;4.946;2023-04-24T14:07:54;10.80;99.90
25092;DHT22;13082;52.374;4.946;2023-04-24T14:10:20;11.00;99.90
25092;DHT22;13082;52.374;4.946;2023-04-24T14:12:46;11.10;99.90
25092;DHT22;13082;52.374;4.946;2023-04-24T14:15:11;11.10;99.90
25092;DHT22;13082;52.374;4.946;2023-04-24T14:17:38;11.10;99.90
25092;DHT22;13082;52.374;4.946;2023-04-24T14:20:05;11.10;99.90
25092;DHT22;13082;52.374;4.946;2023-04-24T14:22:31;11.00;99.90
25092;DHT22;13082;52.374;4.946;2023-04-24T14:24:56;10.90;99.90
25092;DHT22;13082;52.374;4.946;2023-04-24T14:27:23;10.90;99.90
25092;DHT22;13082;52.374;4.946;2023-04-24T14:29:49;10.90;99.90
25092;DHT22;13082;52.374;4.946;2023-04-24T14:32:15;10.80;99.90
25092;DHT22;13082;52.374;4.946;2023-04-24T14:34:40;10.70;99.90
25092;DHT22;13082;52.374;4.946;2023-04-24T14:37:07;10.70;99.90
25092;DHT22;13082;52.374;4.946;2023-04-24T14:39:32;10.80;99.90
25092;DHT22;13082;52.374;4.946;2023-04-24T14:41:58;10.80;99.90
25092;DHT22;13082;52.374;4.946;2023-04-24T14:44:24;10.70;99.90
25092;DHT22;13082;52.374;4.946;2023-04-24T14:46:50;10.70;99.90
25092;DHT22;13082;52.374;4.946;2023-04-24T14:49:16;10.80;99.90
25092;DHT22;13082;52.374;4.946;2023-04-24T14:51:41;10.80;99.90
25092;DHT22;13082;52.374;4.946;2023-04-24T14:54:08;10.80;99.90
25092;DHT22;13082;52.374;4.946;2023-04-24T14:56:33;10.80;99.90
25092;DHT22;13082;52.374;4.946;2023-04-24T14:58:59;10.90;99.90
25092;DHT22;13082;52.374;4.946;2023-04-24T15:01:25;11.00;99.90
25092;DHT22;13082;52.374;4.946;2023-04-24T15:03:50;11.10;99.90
25092;DHT22;13082;52.374;4.946;2023-04-24T15:06:16;11.10;99.90
25092;DHT22;13082;52.374;4.946;2023-04-24T15:08:41;11.20;99.90
25092;DHT22;13082;52.374;4.946;2023-04-24T15:11:08;11.10;99.90
25092;DHT22;13082;52.374;4.946;2023-04-24T15:13:34;11.10;99.90
25092;DHT22;13082;52.374;4.946;2023-04-24T15:16:00;11.20;99.90
25092;DHT22;13082;52.374;4.946;2023-04-24T15:18:25;11.30;99.90
25092;DHT22;13082;52.374;4.946;2023-04-24T15:20:53;11.30;99.90
25092;DHT22;13082;52.374;4.946;2023-04-24T15:23:18;11.20;99.90
25092;DHT22;13082;52.374;4.946;2023-04-24T15:25:44;11.10;99.90
25092;DHT22;13082;52.374;4.946;2023-04-24T15:28:09;11.00;99.90
25092;DHT22;13082;52.374;4.946;2023-04-24T15:30:35;10.80;99.90
25092;DHT22;13082;52.374;4.946;2023-04-24T15:33:01;10.80;99.90
25092;DHT22;13082;52.374;4.946;2023-04-24T15:35:27;10.80;99.90
25092;DHT22;13082;52.374;4.946;2023-04-24T15:37:53;10.80;99.90
25092;DHT22;13082;52.374;4.946;2023-04-24T15:40:18;10.80;99.90
25092;DHT22;13082;52.374;4.946;2023-04-24T15:42:45;10.80;99.90